Chatham, Canada
Current Conditions -  °F | °C
As of 3:00 PM on Friday 24 Oct 2014 (Local Time) from CYCK Reporting Station
Scattered Clouds Scattered Clouds  
Wind Chill: 59°   Ceiling: Unl
Heat Index: 59°   Visibility: 9mi
Dew Point: 45°   Wind: 12mph
Humidity: 59%   Direction: 210°SSW
Pressure: 30"   Gusts: 17mph
Location:  42.4°N, 82.19°W
Report Text: CYCK 241900Z AUTO 21010G15KT 9SM SCT060 15/07 A3000 RMK SLP163 DENSITY ALT 700FT
Loading
Personal Weather Stations






























Interactive Weather Map
Tropical Storm Tracking
New forecast layout! Learn more

10-Day Weather Forecast

Advertisements
Track Severe Weather on mobile